createdAt,value
2018-06-28T00:00:13.390Z,6.00
2018-06-28T00:02:52.125Z,6.14
2018-06-28T00:05:33.966Z,6.14
2018-06-28T00:08:13.232Z,7.20
2018-06-28T00:10:46.339Z,6.00
2018-06-28T00:13:22.000Z,7.33
2018-06-28T00:15:57.089Z,6.00
2018-06-28T00:18:30.010Z,6.00
2018-06-28T00:21:04.058Z,5.14
2018-06-28T00:23:39.890Z,5.86
2018-06-28T00:26:13.982Z,6.00
2018-06-28T00:28:46.633Z,6.67
2018-06-28T00:31:21.674Z,6.67
2018-06-28T00:33:56.597Z,8.25
2018-06-28T00:36:31.059Z,8.20
2018-06-28T00:39:05.957Z,9.00
2018-06-28T00:41:38.832Z,8.00
2018-06-28T00:44:12.697Z,7.00
2018-06-28T00:46:47.355Z,8.00
2018-06-28T00:49:27.667Z,7.33
2018-06-28T00:52:01.517Z,6.00
2018-06-28T00:54:39.038Z,9.00
2018-06-28T00:57:13.988Z,7.33
2018-06-28T00:59:46.348Z,8.00
2018-06-28T01:02:18.531Z,9.00
2018-06-28T01:04:51.767Z,9.00
2018-06-28T01:07:24.927Z,9.00
2018-06-28T01:09:57.528Z,8.00
2018-06-28T01:12:30.930Z,9.00
2018-06-28T01:15:06.190Z,9.00
2018-06-28T01:17:37.963Z,8.33
2018-06-28T01:20:09.509Z,9.00
2018-06-28T01:22:41.390Z,8.33
2018-06-28T01:25:13.968Z,8.25
2018-06-28T01:27:45.285Z,8.67
2018-06-28T01:30:16.787Z,9.00
2018-06-28T01:32:49.306Z,8.75
2018-06-28T01:35:22.195Z,8.00
2018-06-28T01:38:07.659Z,8.00
2018-06-28T01:40:39.481Z,8.00
2018-06-28T01:43:37.535Z,8.33
2018-06-28T01:46:08.964Z,10.00
2018-06-28T01:48:40.919Z,8.00
2018-06-28T01:51:13.317Z,8.25
2018-06-28T01:53:45.047Z,8.67
2018-06-28T01:56:16.723Z,8.33
2018-06-28T01:58:48.119Z,8.67
2018-06-28T02:01:20.416Z,9.00
2018-06-28T02:03:51.921Z,9.00
2018-06-28T02:06:23.201Z,8.00
2018-06-28T02:08:54.945Z,8.67
2018-06-28T02:11:26.833Z,9.33
2018-06-28T02:13:57.980Z,9.00
2018-06-28T02:16:29.777Z,8.67
2018-06-28T02:19:01.244Z,8.67
2018-06-28T02:21:32.947Z,9.00
2018-06-28T02:24:05.682Z,9.00
2018-06-28T02:26:37.936Z,8.25
2018-06-28T02:29:10.331Z,10.33
2018-06-28T02:31:41.697Z,9.00
2018-06-28T02:34:13.917Z,8.67
2018-06-28T02:36:45.779Z,9.00
2018-06-28T02:39:17.133Z,9.00
2018-06-28T02:41:48.460Z,10.00
2018-06-28T02:44:20.275Z,9.67
2018-06-28T02:46:51.993Z,10.33
2018-06-28T02:49:24.028Z,8.00
2018-06-28T02:51:55.751Z,8.67
2018-06-28T02:54:27.136Z,7.33
2018-06-28T02:56:58.562Z,8.67
2018-06-28T02:59:30.256Z,10.33
2018-06-28T03:02:01.906Z,9.00
2018-06-28T03:04:33.358Z,9.00
2018-06-28T03:07:08.242Z,8.33
2018-06-28T03:09:39.840Z,10.33
2018-06-28T03:12:11.754Z,9.00
2018-06-28T03:14:42.306Z,10.00
2018-06-28T03:17:14.136Z,8.00
2018-06-28T03:19:45.539Z,9.00
2018-06-28T03:22:17.484Z,8.00
2018-06-28T03:24:48.891Z,8.00
2018-06-28T03:27:20.657Z,8.00
2018-06-28T03:29:52.009Z,10.33
2018-06-28T03:32:23.350Z,8.67
2018-06-28T03:34:55.396Z,9.00
2018-06-28T03:37:26.847Z,10.33
2018-06-28T03:39:58.571Z,8.00
2018-06-28T03:42:30.023Z,9.00
2018-06-28T03:45:01.376Z,8.00
2018-06-28T03:47:35.242Z,11.00
2018-06-28T03:50:06.691Z,10.33
2018-06-28T03:52:38.070Z,9.00
2018-06-28T03:55:09.379Z,8.00
2018-06-28T03:57:40.868Z,8.00
2018-06-28T04:00:14.676Z,8.75
2018-06-28T04:06:31.889Z,8.00
2018-06-28T04:09:06.421Z,8.33
2018-06-28T04:11:38.709Z,11.00
2018-06-28T04:14:10.987Z,10.33
2018-06-28T04:16:42.520Z,9.67
2018-06-28T04:19:14.995Z,8.33
2018-06-28T04:21:47.000Z,8.00
2018-06-28T04:24:21.114Z,9.00
2018-06-28T04:26:52.744Z,9.00
2018-06-28T04:29:24.117Z,7.33
2018-06-28T04:31:57.773Z,10.00
2018-06-28T04:34:30.642Z,9.00
2018-06-28T04:37:03.253Z,9.00
2018-06-28T04:39:40.080Z,9.33
2018-06-28T04:42:17.364Z,10.00
2018-06-28T04:44:51.709Z,7.00
2018-06-28T04:47:23.406Z,7.33
2018-06-28T04:50:01.538Z,8.67
2018-06-28T04:52:33.587Z,9.67
2018-06-28T04:55:05.143Z,10.00
2018-06-28T04:57:37.046Z,10.33
2018-06-28T05:00:08.631Z,10.00
2018-06-28T05:02:41.060Z,7.00
2018-06-28T05:05:12.927Z,7.00
2018-06-28T05:07:44.766Z,8.67
2018-06-28T05:10:16.908Z,10.00
2018-06-28T05:12:49.401Z,9.33
2018-06-28T05:15:20.764Z,6.33
2018-06-28T05:17:52.109Z,7.00
2018-06-28T05:20:24.646Z,8.67
2018-06-28T05:22:56.788Z,7.33
2018-06-28T05:25:29.027Z,8.00
2018-06-28T05:28:01.121Z,7.00
2018-06-28T05:30:33.067Z,7.67
2018-06-28T05:33:05.802Z,8.00
2018-06-28T05:35:37.211Z,8.67
2018-06-28T05:38:09.313Z,7.33
2018-06-28T05:40:40.774Z,9.33
2018-06-28T05:43:12.659Z,9.33
2018-06-28T05:45:47.222Z,7.00
2018-06-28T05:48:20.486Z,8.00
2018-06-28T05:51:23.397Z,8.00
2018-06-28T05:53:54.758Z,7.67
2018-06-28T05:56:33.667Z,9.33
2018-06-28T05:59:07.253Z,9.00
2018-06-28T06:01:39.380Z,7.67
2018-06-28T06:04:11.712Z,8.75
2018-06-28T06:06:47.779Z,8.33
2018-06-28T06:09:31.970Z,7.67
2018-06-28T06:15:42.318Z,7.00
2018-06-28T06:18:14.818Z,8.00
2018-06-28T06:20:47.289Z,8.00
2018-06-28T06:23:19.875Z,9.00
2018-06-28T06:25:57.062Z,9.00
2018-06-28T06:28:32.621Z,9.00
2018-06-28T06:31:08.317Z,8.00
2018-06-28T06:33:42.487Z,8.67
2018-06-28T06:36:17.755Z,10.00
2018-06-28T06:38:49.609Z,9.00
2018-06-28T06:41:21.278Z,7.67
2018-06-28T06:43:56.054Z,7.00
2018-06-28T06:46:30.290Z,9.00
2018-06-28T06:51:56.305Z,8.00
2018-06-28T06:54:33.035Z,7.25
2018-06-28T06:57:08.607Z,7.75
2018-06-28T06:59:44.680Z,10.33
2018-06-28T07:02:18.335Z,8.00
2018-06-28T07:04:58.840Z,8.67
2018-06-28T07:07:35.208Z,8.33
2018-06-28T07:10:14.634Z,7.00
2018-06-28T07:12:47.838Z,9.00
2018-06-28T07:15:24.988Z,8.00
2018-06-28T07:17:59.063Z,8.40
2018-06-28T07:20:33.262Z,8.60
2018-06-28T07:23:14.631Z,6.29
2018-06-28T07:25:48.980Z,6.33
2018-06-28T07:31:05.394Z,8.00
2018-06-28T07:33:39.326Z,9.00
2018-06-28T07:36:11.511Z,9.00
2018-06-28T07:38:44.840Z,8.25
2018-06-28T07:41:21.789Z,6.00
2018-06-28T07:46:39.515Z,6.67
2018-06-28T07:49:14.711Z,9.00
2018-06-28T07:51:54.587Z,10.00
2018-06-28T07:54:27.626Z,9.00
2018-06-28T07:57:03.520Z,10.00
2018-06-28T07:59:42.550Z,9.00
2018-06-28T08:02:17.730Z,8.33
2018-06-28T08:04:57.839Z,7.00
2018-06-28T08:07:35.021Z,9.33
2018-06-28T08:10:08.616Z,6.33
2018-06-28T08:12:40.466Z,11.33
2018-06-28T08:15:15.134Z,8.00
2018-06-28T08:17:49.802Z,8.00
2018-06-28T08:20:29.643Z,8.00
2018-06-28T08:23:02.982Z,8.00
2018-06-28T08:25:36.668Z,8.25
2018-06-28T08:28:17.118Z,8.00
2018-06-28T08:30:52.510Z,9.33
2018-06-28T08:33:28.055Z,8.00
2018-06-28T08:36:02.903Z,8.67
2018-06-28T08:38:35.914Z,7.33
2018-06-28T08:41:20.329Z,8.67
2018-06-28T08:44:02.176Z,8.00
2018-06-28T08:46:35.400Z,9.00
2018-06-28T08:49:22.843Z,9.33
2018-06-28T08:51:59.219Z,8.00
2018-06-28T08:54:38.612Z,8.00
2018-06-28T08:57:17.380Z,7.33
2018-06-28T08:59:53.559Z,8.00
2018-06-28T09:02:27.726Z,8.00
2018-06-28T09:05:07.473Z,9.33
2018-06-28T09:07:43.575Z,7.33
2018-06-28T09:10:16.465Z,9.00
2018-06-28T09:12:51.057Z,8.00
2018-06-28T09:15:23.843Z,9.33
2018-06-28T09:18:19.372Z,9.00
2018-06-28T09:21:04.790Z,9.00
2018-06-28T09:23:47.113Z,9.00
2018-06-28T09:26:23.632Z,8.33
2018-06-28T09:28:58.625Z,9.33
2018-06-28T09:37:58.189Z,9.00
2018-06-28T09:40:44.419Z,9.00
2018-06-28T09:43:27.718Z,8.67
2018-06-28T09:48:53.978Z,9.33
2018-06-28T09:51:31.374Z,9.00
2018-06-28T09:54:09.250Z,6.33
2018-06-28T10:08:10.805Z,8.67
2018-06-28T10:13:43.855Z,9.00
2018-06-28T10:16:37.652Z,9.67
2018-06-28T10:19:22.038Z,9.33
2018-06-28T10:22:07.425Z,8.33
2018-06-28T10:27:53.467Z,9.67
2018-06-28T10:33:53.583Z,8.00
2018-06-28T10:36:39.840Z,10.33
2018-06-28T10:45:41.271Z,7.33
2018-06-28T10:48:28.424Z,8.00
2018-06-28T10:51:15.046Z,7.00
2018-06-28T10:54:00.908Z,9.00
2018-06-28T10:56:40.123Z,8.33
2018-06-28T11:02:14.363Z,9.33
2018-06-28T11:05:02.840Z,8.33
2018-06-28T13:18:44.497Z,9.00
2018-06-28T13:21:17.063Z,9.00
2018-06-28T13:23:59.254Z,8.33
2018-06-28T13:29:05.355Z,8.67
2018-06-28T13:31:37.569Z,8.67
2018-06-28T13:34:09.645Z,9.00
2018-06-28T13:36:42.934Z,9.00
2018-06-28T13:39:16.825Z,8.33
2018-06-28T13:41:49.594Z,10.00
2018-06-28T13:44:25.416Z,9.50
2018-06-28T13:46:59.769Z,9.00
2018-06-28T13:49:34.216Z,10.00
2018-06-28T13:52:19.138Z,8.67
2018-06-28T13:54:55.876Z,8.33
2018-06-28T14:00:14.784Z,9.67
2018-06-28T14:02:48.669Z,9.33
2018-06-28T14:05:24.538Z,11.33
2018-06-28T14:08:02.743Z,9.33
2018-06-28T14:10:38.615Z,10.67
2018-06-28T14:13:12.693Z,9.33
2018-06-28T14:16:16.307Z,10.00
2018-06-28T14:18:54.755Z,9.00
2018-06-28T14:21:29.041Z,9.75
2018-06-28T14:24:02.776Z,9.00
2018-06-28T14:26:36.222Z,8.67
2018-06-28T14:29:12.085Z,8.00
2018-06-28T14:31:49.135Z,10.00
2018-06-28T14:34:22.430Z,10.00
2018-06-28T14:36:54.924Z,10.33
2018-06-28T14:39:28.440Z,9.25
2018-06-28T14:42:02.448Z,10.00
2018-06-28T14:44:35.347Z,9.00
2018-06-28T14:47:07.020Z,10.00
2018-06-28T14:49:43.241Z,9.00
2018-06-28T14:52:16.253Z,10.00
2018-06-28T14:54:47.936Z,8.67
2018-06-28T14:57:23.230Z,9.67
2018-06-28T15:00:00.838Z,10.00
2018-06-28T15:02:41.179Z,10.33
2018-06-28T15:05:15.373Z,10.67
2018-06-28T15:07:52.568Z,9.00
2018-06-28T15:10:26.677Z,11.00
2018-06-28T15:12:59.389Z,9.00
2018-06-28T15:15:36.527Z,9.75
2018-06-28T15:18:09.662Z,11.00
2018-06-28T15:20:41.267Z,10.33
2018-06-28T15:23:16.579Z,10.00
2018-06-28T15:25:48.720Z,10.00
2018-06-28T15:28:21.536Z,9.00
2018-06-28T15:30:54.100Z,10.00
2018-06-28T15:33:26.561Z,9.33
2018-06-28T15:36:20.215Z,9.00
2018-06-28T15:38:54.063Z,8.33
2018-06-28T15:41:25.568Z,9.67
2018-06-28T15:44:06.829Z,9.33
2018-06-28T15:46:38.939Z,10.33
2018-06-28T15:49:13.997Z,9.75
2018-06-28T15:51:49.309Z,10.67
2018-06-28T15:54:23.405Z,10.33
2018-06-28T15:56:59.793Z,11.00
2018-06-28T15:59:47.624Z,9.33
2018-06-28T16:02:35.392Z,10.25
2018-06-28T16:05:10.172Z,10.50
2018-06-28T16:07:48.966Z,11.00
2018-06-28T16:10:22.181Z,8.75
2018-06-28T16:12:57.053Z,10.33
2018-06-28T16:15:30.417Z,9.00
2018-06-28T16:18:06.093Z,10.33
2018-06-28T16:20:39.937Z,9.33
2018-06-28T16:23:25.697Z,9.75
2018-06-28T16:25:59.988Z,9.33
2018-06-28T16:28:32.456Z,9.75
2018-06-28T16:31:06.875Z,11.00
2018-06-28T16:33:42.442Z,10.00
2018-06-28T16:36:14.913Z,9.00
2018-06-28T16:38:48.529Z,9.00
2018-06-28T16:41:22.085Z,9.00
2018-06-28T16:43:57.862Z,8.00
2018-06-28T16:46:34.423Z,8.33
2018-06-28T16:49:08.540Z,9.00
2018-06-28T16:51:43.107Z,9.00
2018-06-28T16:54:18.024Z,8.00
2018-06-28T16:59:41.558Z,9.00
2018-06-28T17:02:15.461Z,9.67
2018-06-28T17:04:48.921Z,10.00
2018-06-28T17:07:23.486Z,11.67
2018-06-28T17:09:58.602Z,8.67
2018-06-28T17:12:32.960Z,9.00
2018-06-28T17:15:09.465Z,9.00
2018-06-28T17:17:42.443Z,10.00
2018-06-28T17:20:16.282Z,9.50
2018-06-28T17:22:53.750Z,9.00
2018-06-28T17:25:25.556Z,9.67
2018-06-28T17:28:01.845Z,9.00
2018-06-28T17:30:34.452Z,9.00
2018-06-28T17:33:11.142Z,8.00
2018-06-28T17:35:43.096Z,9.00
2018-06-28T17:38:21.719Z,8.67
2018-06-28T17:41:00.350Z,9.00
2018-06-28T17:43:54.341Z,8.67
2018-06-28T17:46:32.050Z,9.00
2018-06-28T17:52:01.750Z,9.67
2018-06-28T17:54:50.996Z,9.33
2018-06-28T17:57:25.424Z,9.67
2018-06-28T18:00:00.081Z,10.00
2018-06-28T18:02:33.329Z,10.00
2018-06-28T18:05:11.726Z,9.50
2018-06-28T18:07:44.685Z,9.67
2018-06-28T18:10:28.260Z,8.50
2018-06-28T18:13:04.084Z,10.00
2018-06-28T18:15:39.846Z,9.00
2018-06-28T18:18:13.031Z,9.00
2018-06-28T18:20:47.598Z,8.00
2018-06-28T18:23:22.371Z,9.00
2018-06-28T18:25:56.260Z,8.67
2018-06-28T18:28:31.605Z,8.33
2018-06-28T18:31:04.198Z,10.33
2018-06-28T18:33:37.988Z,9.00
2018-06-28T18:36:12.213Z,10.00
2018-06-28T18:38:47.097Z,8.00
2018-06-28T18:41:20.097Z,10.33
2018-06-28T18:43:55.481Z,9.33
2018-06-28T18:46:28.157Z,10.67
2018-06-28T18:49:09.058Z,9.33
2018-06-28T18:51:43.281Z,8.67
2018-06-28T18:54:18.987Z,9.67
2018-06-28T18:56:57.470Z,9.33
2018-06-28T18:59:30.542Z,9.33
2018-06-28T19:02:09.293Z,8.33
2018-06-28T19:04:49.270Z,11.00
2018-06-28T19:07:23.416Z,10.80
2018-06-28T19:10:02.463Z,11.67
2018-06-28T19:12:37.270Z,9.33
2018-06-28T19:15:18.697Z,9.33
2018-06-28T19:17:52.798Z,11.00
2018-06-28T19:20:29.220Z,11.00
2018-06-28T19:23:06.567Z,11.00
2018-06-28T19:25:38.497Z,7.67
2018-06-28T19:28:10.780Z,10.00
2018-06-28T19:30:51.129Z,11.00
2018-06-28T19:33:24.201Z,9.00
2018-06-28T19:35:59.477Z,10.00
2018-06-28T19:38:37.571Z,9.33
2018-06-28T19:41:16.650Z,11.00
2018-06-28T19:43:56.831Z,9.67
2018-06-28T19:49:15.209Z,9.67
2018-06-28T19:51:52.822Z,10.67
2018-06-28T19:54:27.450Z,8.67
2018-06-28T19:57:00.740Z,9.33
2018-06-28T19:59:36.234Z,9.33
2018-06-28T20:02:12.783Z,9.33
2018-06-28T20:04:47.746Z,9.00
2018-06-28T20:07:19.295Z,10.67
2018-06-28T20:09:53.566Z,10.67
2018-06-28T20:12:36.882Z,11.33
2018-06-28T20:15:17.922Z,8.33
2018-06-28T20:18:05.728Z,10.00
2018-06-28T20:20:38.648Z,12.00
2018-06-28T20:23:12.752Z,10.33
2018-06-28T20:25:47.868Z,10.67
2018-06-28T20:28:29.024Z,10.00
2018-06-28T20:31:06.418Z,11.00
2018-06-28T20:33:55.008Z,10.00
2018-06-28T20:36:33.965Z,10.33
2018-06-28T20:39:11.162Z,10.33
2018-06-28T20:41:52.653Z,11.00
2018-06-28T20:44:34.460Z,8.33
2018-06-28T20:47:07.806Z,10.00
2018-06-28T20:49:45.221Z,11.00
2018-06-28T20:52:21.864Z,10.00
2018-06-28T20:54:55.266Z,11.00
2018-06-28T20:57:28.977Z,10.00
2018-06-28T21:00:05.400Z,10.00
2018-06-28T21:02:43.827Z,12.00
2018-06-28T21:05:18.280Z,8.67
2018-06-28T21:07:50.394Z,10.00
2018-06-28T21:10:22.298Z,10.67
2018-06-28T21:12:56.411Z,10.33
2018-06-28T21:15:31.621Z,10.00
2018-06-28T21:18:12.577Z,11.00
2018-06-28T21:20:46.658Z,10.00
2018-06-28T21:23:23.150Z,10.33
2018-06-28T21:25:58.711Z,10.00
2018-06-28T21:28:32.262Z,10.33
2018-06-28T21:31:09.805Z,10.00
2018-06-28T21:36:25.395Z,12.00
2018-06-28T21:38:59.194Z,11.67
2018-06-28T21:41:41.020Z,11.00
2018-06-28T21:44:12.417Z,10.00
2018-06-28T21:46:47.992Z,10.00
2018-06-28T21:49:20.458Z,10.33
2018-06-28T21:51:53.196Z,11.33
2018-06-28T21:54:31.058Z,10.67
2018-06-28T21:57:07.597Z,9.67
2018-06-28T21:59:44.008Z,11.00
2018-06-28T22:02:17.972Z,10.00
2018-06-28T22:05:00.262Z,9.00
2018-06-28T22:07:31.576Z,9.33
2018-06-28T22:10:05.522Z,11.67
2018-06-28T22:12:40.610Z,11.00
2018-06-28T22:15:17.091Z,10.00
2018-06-28T22:17:51.050Z,10.00
2018-06-28T22:20:25.452Z,9.00
2018-06-28T22:22:58.272Z,10.67
2018-06-28T22:25:31.168Z,11.67
2018-06-28T22:28:08.500Z,10.67
2018-06-28T22:30:40.785Z,10.00
2018-06-28T22:33:14.214Z,11.33
2018-06-28T22:35:48.134Z,11.33
2018-06-28T22:38:21.395Z,11.00
2018-06-28T22:41:10.688Z,11.33
2018-06-28T22:46:24.241Z,10.00
2018-06-28T22:49:05.276Z,10.67
2018-06-28T22:51:43.438Z,11.00
2018-06-28T22:54:17.763Z,11.67
2018-06-28T22:56:49.526Z,10.33
2018-06-28T22:59:21.732Z,11.67
2018-06-28T23:01:53.895Z,12.67
2018-06-28T23:04:26.603Z,11.00
2018-06-28T23:06:59.612Z,11.33
2018-06-28T23:09:32.805Z,12.00
2018-06-28T23:12:05.829Z,11.33
2018-06-28T23:14:38.820Z,11.00
2018-06-28T23:17:11.877Z,11.00
2018-06-28T23:19:47.330Z,12.33
2018-06-28T23:23:01.486Z,11.00
2018-06-28T23:25:40.035Z,12.00
2018-06-28T23:28:16.923Z,12.67
2018-06-28T23:30:50.879Z,11.00
2018-06-28T23:33:24.602Z,10.33
2018-06-28T23:35:57.125Z,11.00
2018-06-28T23:38:31.091Z,12.00
2018-06-28T23:41:08.924Z,12.00
2018-06-28T23:43:43.732Z,11.00
2018-06-28T23:46:16.004Z,12.33
2018-06-28T23:48:51.230Z,12.00
2018-06-28T23:51:23.574Z,12.67
2018-06-28T23:53:56.961Z,12.00
2018-06-28T23:56:27.934Z,11.67
2018-06-28T23:59:01.805Z,12.67
